Time;durP1;ratioP1;P1;durP2;ratioP2;P2;SDS_P1;SDS_P2;PMS_P1;PMS_P2;Temp;Humidity;BMP_temperature;BMP_pressure;BME280_temperature;BME280_humidity;BME280_pressure;Samples;Min_cycle;Max_cycle;Signal;HPM_P1;HPM_P2
2023/06/27 00:01:14;;;;;;;;;;;;;;;27.71;42.89;100381.41;5086640;28;1156;-20
2023/06/27 00:03:40;;;;;;;;;;;;;;;27.88;42.82;100389.22;5092520;28;1238;-20
2023/06/27 00:06:05;;;;;;;;;;;;;;;27.81;42.74;100389.19;5079058;28;1238;-21
2023/06/27 00:08:34;;;;;;;;;;;;;;;27.94;42.55;100391.16;5078890;28;1224;-20
2023/06/27 00:10:59;;;;;;;;;;;;;;;28.01;42.22;100395.78;5091314;28;1023;-20
2023/06/27 00:13:25;;;;;;;;;;;;;;;28.08;42.36;100383.97;5085468;28;1217;-20
2023/06/27 00:15:53;;;;;;;;;;;;;;;28.07;42.36;100386.88;5086142;28;1121;-20
2023/06/27 00:18:21;;;;;;;;;;;;;;;28.04;42.68;100390.81;5078472;28;1910;-20
2023/06/27 00:20:50;;;;;;;;;;;;;;;28.04;42.30;100388.09;5078385;28;1131;-20
2023/06/27 00:23:19;;;;;;;;;;;;;;;28.01;42.49;100387.66;5081857;28;1233;-20
2023/06/27 00:25:45;;;;;;;;;;;;;;;27.73;43.84;100381.22;5085141;28;1137;-20
2023/06/27 00:28:10;;;;;;;;;;;;;;;27.86;43.19;100384.03;5091261;28;1225;-20
2023/06/27 00:30:36;;;;;;;;;;;;;;;27.89;43.09;100385.50;5092014;28;1055;-20
2023/06/27 00:33:02;;;;;;;;;;;;;;;27.84;43.10;100380.66;5078703;28;1146;-20
2023/06/27 00:35:33;;;;;;;;;;;;;;;27.78;43.28;100380.66;5073686;28;1130;-20
2023/06/27 00:37:59;;;;;;;;;;;;;;;27.83;43.13;100388.97;5090413;28;1984;-21
2023/06/27 00:40:25;;;;;;;;;;;;;;;27.90;42.68;100386.31;5089802;28;1141;-20
2023/06/27 00:42:50;;;;;;;;;;;;;;;27.99;42.67;100380.56;5090033;28;1141;-20
2023/06/27 00:45:16;;;;;;;;;;;;;;;27.86;42.74;100383.22;5079672;28;1114;-20
2023/06/27 00:47:41;;;;;;;;;;;;;;;27.88;42.98;100378.41;5094456;28;1054;-20
2023/06/27 00:50:07;;;;;;;;;;;;;;;27.86;43.00;100380.50;5066617;28;1118;-20
2023/06/27 00:52:33;;;;;;;;;;;;;;;27.99;42.53;100375.16;5097961;28;1204;-20
2023/06/27 00:54:58;;;;;;;;;;;;;;;27.68;43.03;100380.94;5079865;28;1153;-20
2023/06/27 00:57:24;;;;;;;;;;;;;;;27.67;43.49;100379.28;5071743;28;2015;-20
2023/06/27 00:59:50;;;;;;;;;;;;;;;27.82;42.90;100379.22;5078022;28;1126;-20
2023/06/27 01:02:15;;;;;;;;;;;;;;;27.80;43.00;100378.56;5086452;28;1201;-20
2023/06/27 01:04:41;;;;;;;;;;;;;;;27.75;43.20;100369.19;5064626;28;1698;-20
2023/06/27 01:07:10;;;;;;;;;;;;;;;27.67;43.63;100363.91;5077948;28;1218;-20
2023/06/27 01:09:38;;;;;;;;;;;;;;;27.87;43.01;100368.66;5078802;28;1154;-20
2023/06/27 01:12:09;;;;;;;;;;;;;;;27.67;43.57;100369.31;5079859;28;1074;-20
2023/06/27 01:14:35;;;;;;;;;;;;;;;27.80;43.21;100370.44;5066150;28;1058;-20
2023/06/27 01:17:00;;;;;;;;;;;;;;;27.71;43.65;100367.09;5089276;28;1894;-20
2023/06/27 01:19:26;;;;;;;;;;;;;;;27.77;43.64;100370.84;5059661;28;1245;-20
2023/06/27 01:21:52;;;;;;;;;;;;;;;27.58;43.39;100367.75;5076248;28;1253;-20
2023/06/27 01:24:18;;;;;;;;;;;;;;;27.80;43.10;100360.50;5076555;28;1062;-21
2023/06/27 01:26:43;;;;;;;;;;;;;;;27.80;43.15;100365.06;5059676;28;1605;-20
2023/06/27 01:29:11;;;;;;;;;;;;;;;27.70;43.30;100363.53;5077480;28;999;-20
2023/06/27 01:31:44;;;;;;;;;;;;;;;27.75;43.48;100366.50;5059410;28;1219;-20
2023/06/27 01:34:18;;;;;;;;;;;;;;;27.97;42.78;100369.13;5093713;28;1177;-20
2023/06/27 01:36:54;;;;;;;;;;;;;;;27.76;43.14;100364.59;5067405;28;1926;-20
2023/06/27 01:39:23;;;;;;;;;;;;;;;27.80;43.33;100365.06;5079747;28;1170;-20
2023/06/27 01:41:49;;;;;;;;;;;;;;;27.80;43.42;100359.66;5079168;28;1137;-20
2023/06/27 01:44:16;;;;;;;;;;;;;;;27.82;43.15;100361.13;5059795;28;1055;-20
2023/06/27 01:46:41;;;;;;;;;;;;;;;27.69;43.74;100356.47;5076076;28;1119;-21
2023/06/27 01:49:07;;;;;;;;;;;;;;;27.82;43.30;100363.84;5062409;28;1134;-20
2023/06/27 01:51:32;;;;;;;;;;;;;;;27.73;43.72;100356.88;5066370;28;1071;-21
2023/06/27 01:53:58;;;;;;;;;;;;;;;27.67;43.80;100365.75;5048370;28;1307;-21
2023/06/27 01:56:24;;;;;;;;;;;;;;;27.60;43.75;100369.25;5078780;28;1905;-20
2023/06/27 01:58:50;;;;;;;;;;;;;;;27.83;43.49;100370.06;5072449;28;1038;-21
2023/06/27 02:01:16;;;;;;;;;;;;;;;27.71;43.38;100375.19;5078043;28;893;-20
2023/06/27 02:03:43;;;;;;;;;;;;;;;27.86;42.86;100369.69;5090302;28;1086;-20
2023/06/27 02:06:08;;;;;;;;;;;;;;;27.81;42.70;100369.44;5076827;28;1086;-20
2023/06/27 02:08:34;;;;;;;;;;;;;;;27.85;42.71;100370.69;5078747;28;1331;-20
2023/06/27 02:11:00;;;;;;;;;;;;;;;27.96;41.85;100356.63;5068368;28;1150;-20
2023/06/27 02:13:25;;;;;;;;;;;;;;;27.80;42.11;100365.06;5067163;28;1125;-20
2023/06/27 02:15:51;;;;;;;;;;;;;;;27.92;42.37;100360.78;5089184;28;1023;-20
2023/06/27 02:18:16;;;;;;;;;;;;;;;27.84;42.64;100360.94;5072578;28;1975;-20
2023/06/27 02:20:42;;;;;;;;;;;;;;;27.97;42.36;100371.84;5076256;28;1178;-21
2023/06/27 02:23:07;;;;;;;;;;;;;;;27.85;42.06;100363.44;5074954;28;1062;-20
2023/06/27 02:25:33;;;;;;;;;;;;;;;28.06;42.20;100361.69;5079131;28;861;-20
2023/06/27 02:27:58;;;;;;;;;;;;;;;27.91;42.31;100360.97;5089713;28;994;-22
2023/06/27 02:30:24;;;;;;;;;;;;;;;27.96;42.01;100369.34;5076532;28;1288;-20
2023/06/27 02:32:50;;;;;;;;;;;;;;;27.98;41.55;100367.25;5058584;28;1299;-21
2023/06/27 02:35:16;;;;;;;;;;;;;;;27.81;41.69;100364.03;5088859;28;1118;-20
2023/06/27 02:37:42;;;;;;;;;;;;;;;27.79;42.14;100368.78;5090408;28;1989;-21
2023/06/27 02:40:08;;;;;;;;;;;;;;;27.96;41.46;100367.44;5078286;28;1073;-21
2023/06/27 02:42:34;;;;;;;;;;;;;;;27.97;41.64;100371.84;5090865;28;1070;-20
2023/06/27 02:44:59;;;;;;;;;;;;;;;27.99;40.92;100377.03;5058489;28;1094;-20
2023/06/27 02:47:25;;;;;;;;;;;;;;;28.01;41.33;100379.56;5058414;28;1182;-20
2023/06/27 02:49:50;;;;;;;;;;;;;;;27.83;41.63;100380.88;5079526;28;857;-20
2023/06/27 02:52:16;;;;;;;;;;;;;;;27.92;41.54;100384.25;5076345;28;1149;-20
2023/06/27 02:54:42;;;;;;;;;;;;;;;27.91;40.70;100378.00;5058422;28;1173;-20
2023/06/27 02:57:07;;;;;;;;;;;;;;;27.95;40.92;100387.41;5057849;28;1910;-21
2023/06/27 02:59:35;;;;;;;;;;;;;;;27.93;41.23;100380.50;5070194;28;1159;-20
2023/06/27 03:02:02;;;;;;;;;;;;;;;28.04;41.22;100379.16;5069656;28;1437;-21
2023/06/27 03:04:27;;;;;;;;;;;;;;;27.92;41.15;100379.72;5057415;28;1457;-20
2023/06/27 03:06:53;;;;;;;;;;;;;;;27.89;41.59;100384.66;5071788;28;1240;-20
2023/06/27 03:09:19;;;;;;;;;;;;;;;27.98;40.93;100378.06;5075041;28;1340;-20
2023/06/27 03:11:45;;;;;;;;;;;;;;;28.21;40.93;100380.50;5075509;28;1351;-21
2023/06/27 03:14:17;;;;;;;;;;;;;;;28.16;41.44;100385.66;5097162;28;960;-21
2023/06/27 03:16:45;;;;;;;;;;;;;;;28.15;40.94;100388.56;5081760;28;2306;-20
2023/06/27 03:19:10;;;;;;;;;;;;;;;27.94;41.60;100388.47;5082114;28;1231;-20
2023/06/27 03:21:36;;;;;;;;;;;;;;;27.51;41.70;100389.31;5082022;28;1417;-20
2023/06/27 03:24:03;;;;;;;;;;;;;;;26.92;41.08;100389.34;5068479;28;1311;-20
2023/06/27 03:26:30;;;;;;;;;;;;;;;27.18;39.67;100385.28;5074265;28;1174;-20
2023/06/27 03:28:58;;;;;;;;;;;;;;;27.47;38.56;100383.50;5075089;28;1620;-19
2023/06/27 03:31:23;;;;;;;;;;;;;;;27.39;38.88;100394.44;5081744;28;1207;-20
2023/06/27 03:33:52;;;;;;;;;;;;;;;27.48;39.28;100387.84;5067385;28;1143;-20
2023/06/27 03:36:18;;;;;;;;;;;;;;;27.51;39.57;100382.06;5061414;28;1906;-20
2023/06/27 03:38:45;;;;;;;;;;;;;;;27.68;38.77;100386.34;5062440;28;1215;-20
2023/06/27 03:41:11;;;;;;;;;;;;;;;27.63;38.56;100387.78;5078932;28;1094;-20
2023/06/27 03:43:36;;;;;;;;;;;;;;;27.64;38.37;100394.03;5079382;28;1026;-20
2023/06/27 03:46:02;;;;;;;;;;;;;;;27.70;38.10;100392.41;5091060;28;1055;-21
2023/06/27 03:48:28;;;;;;;;;;;;;;;27.68;38.78;100392.63;5062469;28;1277;-20
2023/06/27 03:50:53;;;;;;;;;;;;;;;27.85;38.05;100395.03;5073371;28;1194;-21
2023/06/27 03:53:20;;;;;;;;;;;;;;;27.68;38.17;100389.91;5067582;28;1139;-20
2023/06/27 03:55:45;;;;;;;;;;;;;;;27.60;38.61;100390.88;5088061;28;1099;-21
2023/06/27 03:58:11;;;;;;;;;;;;;;;27.69;38.19;100398.88;5074660;28;1910;-20
2023/06/27 04:00:36;;;;;;;;;;;;;;;27.94;39.73;100406.53;5079801;28;1074;-22
2023/06/27 04:03:02;;;;;;;;;;;;;;;27.87;41.08;100409.19;5062625;28;1257;-21
2023/06/27 04:05:28;;;;;;;;;;;;;;;27.89;40.82;100417.09;5073312;28;1126;-20
2023/06/27 04:07:53;;;;;;;;;;;;;;;27.91;40.41;100406.94;5062900;28;1235;-20
2023/06/27 04:10:19;;;;;;;;;;;;;;;27.73;39.85;100410.94;5072983;28;1122;-21
2023/06/27 04:12:45;;;;;;;;;;;;;;;27.73;39.69;100410.94;5079550;28;1122;-20
2023/06/27 04:15:10;;;;;;;;;;;;;;;27.76;39.28;100410.53;5079046;28;1117;-21
2023/06/27 04:17:36;;;;;;;;;;;;;;;28.01;38.86;100407.41;5060975;28;1965;-21
2023/06/27 04:20:02;;;;;;;;;;;;;;;27.88;38.80;100413.56;5060616;28;1338;-20
2023/06/27 04:22:27;;;;;;;;;;;;;;;27.89;38.92;100403.59;5059322;28;1226;-21
2023/06/27 04:24:53;;;;;;;;;;;;;;;27.97;38.71;100404.28;5062085;28;1187;-20
2023/06/27 04:27:18;;;;;;;;;;;;;;;27.90;38.82;100403.38;5085633;28;1235;-20
2023/06/27 04:29:44;;;;;;;;;;;;;;;27.90;38.64;100416.06;5092195;28;921;-20
2023/06/27 04:32:09;;;;;;;;;;;;;;;27.84;38.71;100409.59;5078914;28;1035;-20
2023/06/27 04:34:36;;;;;;;;;;;;;;;27.73;38.30;100419.91;5084221;28;1226;-21
2023/06/27 04:37:04;;;;;;;;;;;;;;;27.97;37.96;100419.66;5098369;28;1906;-21
2023/06/27 04:39:30;;;;;;;;;;;;;;;27.99;38.12;100423.81;5085471;28;1022;-20
2023/06/27 04:41:58;;;;;;;;;;;;;;;27.78;38.31;100418.47;5066853;28;1123;-20
2023/06/27 04:44:24;;;;;;;;;;;;;;;28.05;37.93;100416.81;5067347;28;1206;-21
2023/06/27 04:46:50;;;;;;;;;;;;;;;28.05;38.20;100418.66;5080466;28;1078;-21
2023/06/27 04:49:15;;;;;;;;;;;;;;;27.85;38.21;100416.66;5066185;28;1074;-20
2023/06/27 04:51:41;;;;;;;;;;;;;;;27.84;38.08;100417.69;5084752;28;1149;-20
2023/06/27 04:54:06;;;;;;;;;;;;;;;28.06;37.51;100421.16;5078257;28;1162;-20
2023/06/27 04:56:33;;;;;;;;;;;;;;;28.02;37.82;100419.91;5078051;28;1906;-20
2023/06/27 04:58:59;;;;;;;;;;;;;;;27.99;37.92;100412.19;5077955;28;1123;-20
2023/06/27 05:01:24;;;;;;;;;;;;;;;28.13;37.72;100420.41;5079938;28;1103;-20
2023/06/27 05:03:50;;;;;;;;;;;;;;;27.97;37.59;100422.34;5097935;28;1291;-20
2023/06/27 05:06:16;;;;;;;;;;;;;;;27.96;37.40;100413.41;5097792;28;1162;-20
2023/06/27 05:08:41;;;;;;;;;;;;;;;28.03;37.28;100423.44;5077674;28;1061;-20
2023/06/27 05:11:07;;;;;;;;;;;;;;;27.97;37.30;100417.81;5091028;28;1142;-20
2023/06/27 05:13:32;;;;;;;;;;;;;;;28.13;36.88;100423.09;5080839;28;1077;-21
2023/06/27 05:15:58;;;;;;;;;;;;;;;27.92;37.57;100424.81;5084538;28;1101;-21
2023/06/27 05:18:25;;;;;;;;;;;;;;;27.86;37.41;100424.56;5090620;28;1909;-21
2023/06/27 05:20:51;;;;;;;;;;;;;;;27.98;37.22;100435.69;5090958;28;1121;-20
2023/06/27 05:23:17;;;;;;;;;;;;;;;28.24;36.63;100434.19;5084558;28;1043;-20
2023/06/27 05:25:42;;;;;;;;;;;;;;;28.24;36.49;100439.59;5096605;28;1011;-20
2023/06/27 05:28:08;;;;;;;;;;;;;;;28.11;36.76;100437.63;5077695;28;1165;-20
2023/06/27 05:30:34;;;;;;;;;;;;;;;28.13;36.91;100445.56;5091305;28;1117;-20
2023/06/27 05:33:01;;;;;;;;;;;;;;;28.15;37.04;100446.19;5096667;28;1043;-20
2023/06/27 05:35:27;;;;;;;;;;;;;;;28.15;36.75;100439.94;5097468;28;1051;-20
2023/06/27 05:37:52;;;;;;;;;;;;;;;28.31;36.26;100447.75;5091725;28;1897;-20
2023/06/27 05:40:18;;;;;;;;;;;;;;;28.17;36.72;100441.44;5087637;28;1190;-21
2023/06/27 05:42:44;;;;;;;;;;;;;;;28.52;35.84;100443.34;5095579;28;1101;-21
2023/06/27 05:45:09;;;;;;;;;;;;;;;28.63;35.60;100446.50;5097192;28;1097;-20
2023/06/27 05:47:35;;;;;;;;;;;;;;;28.46;36.37;100450.38;5091186;28;1322;-20
2023/06/27 05:50:01;;;;;;;;;;;;;;;28.36;36.03;100450.72;5087839;28;1058;-21
2023/06/27 05:52:28;;;;;;;;;;;;;;;28.41;35.41;100447.41;5078682;28;1178;-19
2023/06/27 05:54:54;;;;;;;;;;;;;;;27.99;35.48;100442.75;5087762;28;1086;-21
2023/06/27 05:57:20;;;;;;;;;;;;;;;28.29;34.70;100438.16;5096776;28;1952;-20
2023/06/27 05:59:45;;;;;;;;;;;;;;;28.28;34.45;100441.91;5097159;28;1116;-21
2023/06/27 06:02:11;;;;;;;;;;;;;;;28.13;34.76;100439.31;5091322;28;1124;-22
2023/06/27 06:04:36;;;;;;;;;;;;;;;28.22;34.63;100443.53;5076229;28;1076;-21
2023/06/27 06:07:03;;;;;;;;;;;;;;;28.26;34.67;100439.38;5083783;28;1078;-20
2023/06/27 06:09:29;;;;;;;;;;;;;;;28.17;35.13;100436.03;5078530;28;1269;-20
2023/06/27 06:11:55;;;;;;;;;;;;;;;28.32;34.67;100435.91;5087845;28;1159;-20
2023/06/27 06:14:21;;;;;;;;;;;;;;;28.35;34.41;100440.09;5082854;28;1157;-21
2023/06/27 06:16:46;;;;;;;;;;;;;;;28.34;34.25;100443.84;5078423;28;1906;-21
2023/06/27 06:19:13;;;;;;;;;;;;;;;28.14;34.90;100435.56;5078830;28;1170;-20
2023/06/27 06:21:38;;;;;;;;;;;;;;;28.23;34.41;100439.78;5076947;28;1020;-21
2023/06/27 06:24:04;;;;;;;;;;;;;;;28.24;34.92;100442.28;5094471;28;1167;-22
2023/06/27 06:26:30;;;;;;;;;;;;;;;28.38;34.79;100442.41;5096028;28;1046;-21
2023/06/27 06:28:55;;;;;;;;;;;;;;;28.38;34.73;100444.31;5091648;28;1027;-21
2023/06/27 06:31:22;;;;;;;;;;;;;;;28.53;34.48;100442.28;5075810;28;1145;-21
2023/06/27 06:33:48;;;;;;;;;;;;;;;28.25;35.11;100437.72;5080720;28;995;-21
2023/06/27 06:36:14;;;;;;;;;;;;;;;28.70;33.75;100444.66;5084914;28;1902;-23
2023/06/27 06:38:39;;;;;;;;;;;;;;;28.69;33.99;100438.44;5089011;28;1517;-21
2023/06/27 06:41:05;;;;;;;;;;;;;;;28.60;34.80;100439.63;5076127;28;1297;-22
2023/06/27 06:43:30;;;;;;;;;;;;;;;28.56;34.17;100438.34;5075988;28;1067;-21
2023/06/27 06:45:56;;;;;;;;;;;;;;;28.42;34.53;100440.16;5090191;28;1072;-21
2023/06/27 06:48:21;;;;;;;;;;;;;;;28.25;34.89;100437.72;5069887;28;1160;-21
2023/06/27 06:50:49;;;;;;;;;;;;;;;28.09;34.91;100434.28;5079842;28;1254;-21
2023/06/27 06:53:14;;;;;;;;;;;;;;;27.90;34.95;100429.56;5087637;28;1106;-21
2023/06/27 06:55:40;;;;;;;;;;;;;;;28.06;35.23;100436.56;5082059;28;1125;-21
2023/06/27 06:58:05;;;;;;;;;;;;;;;28.04;36.41;100439.47;5094655;28;1905;-21
2023/06/27 07:00:31;;;;;;;;;;;;;;;28.29;35.68;100443.59;5090384;28;1142;-21
2023/06/27 07:02:57;;;;;;;;;;;;;;;28.09;35.81;100444.28;5087944;28;1154;-21
2023/06/27 07:05:22;;;;;;;;;;;;;;;28.18;35.73;100444.94;5090146;28;1145;-21
2023/06/27 07:07:48;;;;;;;;;;;;;;;28.13;35.53;100442.84;5090299;28;1393;-20
2023/06/27 07:10:13;;;;;;;;;;;;;;;28.12;35.48;100433.06;5077339;28;1112;-20
2023/06/27 07:12:40;;;;;;;;;;;;;;;28.59;35.37;100449.59;5088923;28;1058;-19
2023/06/27 07:15:06;;;;;;;;;;;;;;;28.53;34.69;100447.69;5089136;28;1106;-20
2023/06/27 07:17:32;;;;;;;;;;;;;;;28.29;34.17;100452.53;5085025;28;1981;-19
2023/06/27 07:19:58;;;;;;;;;;;;;;;27.88;34.86;100443.28;5089895;28;1121;-20
2023/06/27 07:22:23;;;;;;;;;;;;;;;27.94;34.89;100447.09;5075602;28;1044;-20
2023/06/27 07:24:49;;;;;;;;;;;;;;;27.75;34.99;100446.72;5075210;28;1324;-20
2023/06/27 07:27:14;;;;;;;;;;;;;;;28.15;34.58;100446.19;5079772;28;1480;-19
2023/06/27 07:29:40;;;;;;;;;;;;;;;28.04;34.84;100449.44;5075935;28;1336;-20
2023/06/27 07:32:06;;;;;;;;;;;;;;;27.87;34.60;100438.94;5077140;28;1554;-20
2023/06/27 07:34:33;;;;;;;;;;;;;;;27.90;34.72;100445.78;5075857;28;1139;-21
2023/06/27 07:36:59;;;;;;;;;;;;;;;28.14;34.21;100443.69;5082898;28;1914;-20
2023/06/27 07:39:24;;;;;;;;;;;;;;;28.17;34.19;100446.00;5074875;28;1015;-20
2023/06/27 07:41:50;;;;;;;;;;;;;;;27.92;34.61;100449.16;5085213;28;1126;-20
2023/06/27 07:44:15;;;;;;;;;;;;;;;27.95;34.74;100451.44;5082396;28;1098;-20
2023/06/27 07:46:41;;;;;;;;;;;;;;;27.99;34.72;100447.34;5068459;28;1210;-20
2023/06/27 07:49:07;;;;;;;;;;;;;;;27.90;34.81;100443.09;5089203;28;1162;-20
2023/06/27 07:51:32;;;;;;;;;;;;;;;27.82;34.99;100442.22;5075638;28;1054;-20
2023/06/27 07:54:00;;;;;;;;;;;;;;;27.67;34.99;100450.38;5088930;28;1198;-19
2023/06/27 07:56:25;;;;;;;;;;;;;;;27.79;34.67;100458.81;5078018;28;2044;-20
2023/06/27 07:58:51;;;;;;;;;;;;;;;27.99;34.36;100448.16;5098636;28;1026;-19
2023/06/27 08:01:16;;;;;;;;;;;;;;;27.94;35.27;100447.09;5098488;28;1106;-19
2023/06/27 08:03:42;;;;;;;;;;;;;;;28.49;34.15;100451.84;5082163;28;1139;-19
2023/06/27 08:06:07;;;;;;;;;;;;;;;28.64;33.81;100451.72;5079451;28;1174;-19
2023/06/27 08:08:33;;;;;;;;;;;;;;;28.64;34.32;100451.72;5078284;28;1131;-19
2023/06/27 08:10:58;;;;;;;;;;;;;;;28.28;34.22;100452.75;5079097;28;1023;-19
2023/06/27 08:13:24;;;;;;;;;;;;;;;28.11;34.21;100445.75;5092170;28;1186;-19
2023/06/27 08:15:49;;;;;;;;;;;;;;;28.22;34.22;100448.94;5091321;28;1222;-20
2023/06/27 08:18:15;;;;;;;;;;;;;;;28.23;35.22;100451.44;5098679;28;1910;-20
2023/06/27 08:20:40;;;;;;;;;;;;;;;28.43;33.91;100442.66;5085962;28;1186;-20
2023/06/27 08:23:06;;;;;;;;;;;;;;;28.17;34.44;100451.41;5097979;28;1170;-20
2023/06/27 08:25:31;;;;;;;;;;;;;;;27.86;35.72;100448.88;5085795;28;1189;-20
2023/06/27 08:27:57;;;;;;;;;;;;;;;27.80;35.84;100451.53;5097959;28;1173;-20
2023/06/27 08:30:22;;;;;;;;;;;;;;;27.90;35.66;100452.03;5085044;28;1078;-21
2023/06/27 08:32:48;;;;;;;;;;;;;;;27.83;36.18;100459.25;5097866;28;1047;-20
2023/06/27 08:35:14;;;;;;;;;;;;;;;27.83;36.29;100457.41;5075669;28;1346;-20
2023/06/27 08:37:39;;;;;;;;;;;;;;;27.69;36.00;100448.34;5082198;28;1934;-20
2023/06/27 08:40:05;;;;;;;;;;;;;;;27.67;35.79;100441.41;5083579;28;921;-20
2023/06/27 08:42:32;;;;;;;;;;;;;;;27.70;35.98;100446.47;5059693;28;1284;-20
2023/06/27 08:44:58;;;;;;;;;;;;;;;27.67;36.31;100444.13;5086221;28;1059;-20
2023/06/27 08:47:25;;;;;;;;;;;;;;;27.47;36.33;100451.03;5082304;28;1137;-20
2023/06/27 08:49:50;;;;;;;;;;;;;;;27.64;36.30;100450.75;5077530;28;1225;-21
2023/06/27 08:52:16;;;;;;;;;;;;;;;27.67;35.96;100447.69;5090718;28;1146;-20
2023/06/27 08:54:43;;;;;;;;;;;;;;;27.60;36.14;100444.91;5086707;28;1126;-20
2023/06/27 08:57:08;;;;;;;;;;;;;;;27.44;36.74;100446.00;5069320;28;1996;-21
2023/06/27 08:59:35;;;;;;;;;;;;;;;27.59;36.78;100439.69;5075709;28;1105;-21
2023/06/27 09:02:01;;;;;;;;;;;;;;;27.63;36.37;100444.53;5077806;28;1356;-20
2023/06/27 09:04:27;;;;;;;;;;;;;;;27.55;36.23;100449.22;5083813;28;1071;-20
2023/06/27 09:06:53;;;;;;;;;;;;;;;27.69;36.17;100444.81;5075460;28;1197;-20
2023/06/27 09:09:18;;;;;;;;;;;;;;;27.69;36.02;100444.81;5075996;28;1082;-20
2023/06/27 09:11:44;;;;;;;;;;;;;;;27.65;36.08;100446.19;5082632;28;1244;-20
2023/06/27 09:14:09;;;;;;;;;;;;;;;27.69;35.70;100440.25;5096799;28;942;-20
2023/06/27 09:16:35;;;;;;;;;;;;;;;27.67;36.11;100433.31;5086628;28;1976;-20
2023/06/27 09:19:00;;;;;;;;;;;;;;;27.82;36.12;100428.72;5077500;28;1214;-21
2023/06/27 09:21:26;;;;;;;;;;;;;;;28.07;35.63;100439.06;5072511;28;1171;-21
2023/06/27 09:23:52;;;;;;;;;;;;;;;28.20;35.47;100432.91;5086768;28;1401;-20
2023/06/27 09:26:17;;;;;;;;;;;;;;;28.26;35.11;100427.75;5074229;28;1078;-20
2023/06/27 09:28:43;;;;;;;;;;;;;;;28.27;34.81;100435.66;5089017;28;845;-21
2023/06/27 09:31:09;;;;;;;;;;;;;;;28.11;34.87;100424.13;5082792;28;1532;-20
2023/06/27 09:33:34;;;;;;;;;;;;;;;28.24;34.61;100425.25;5079128;28;1185;-20
2023/06/27 09:36:00;;;;;;;;;;;;;;;28.22;34.26;100430.00;5091486;28;1066;-20
2023/06/27 09:38:25;;;;;;;;;;;;;;;28.31;33.85;100423.41;5076783;28;2044;-21
2023/06/27 09:41:01;;;;;;;;;;;;;;;28.28;33.73;100423.00;5077009;28;1405;-21
2023/06/27 09:43:26;;;;;;;;;;;;;;;28.20;33.71;100413.16;5096860;28;1121;-21
2023/06/27 09:46:01;;;;;;;;;;;;;;;28.32;33.76;100413.44;5065700;28;1381;-20
2023/06/27 09:48:29;;;;;;;;;;;;;;;28.48;32.97;100412.28;5095774;28;1050;-20
2023/06/27 09:51:01;;;;;;;;;;;;;;;28.42;33.22;100415.78;5084427;28;1141;-20
2023/06/27 09:53:30;;;;;;;;;;;;;;;28.54;32.65;100418.78;5094154;28;871;-21
2023/06/27 09:55:59;;;;;;;;;;;;;;;28.40;32.31;100425.97;5076801;28;1125;-20
2023/06/27 09:58:27;;;;;;;;;;;;;;;28.53;32.84;100426.06;5089570;28;1902;-20
2023/06/27 10:00:53;;;;;;;;;;;;;;;28.34;33.07;100414.91;5076809;28;1186;-21
2023/06/27 10:03:20;;;;;;;;;;;;;;;28.56;32.48;100422.94;5093442;28;1151;-20
2023/06/27 10:05:46;;;;;;;;;;;;;;;28.50;32.04;100421.03;5076335;28;1114;-20
2023/06/27 10:08:12;;;;;;;;;;;;;;;28.59;31.71;100422.53;5090336;28;1086;-20
2023/06/27 10:10:38;;;;;;;;;;;;;;;28.69;31.84;100421.34;5086636;28;1194;-21
2023/06/27 10:13:03;;;;;;;;;;;;;;;28.51;32.50;100416.47;5095543;28;1049;-21
2023/06/27 10:15:29;;;;;;;;;;;;;;;28.47;32.25;100410.63;5096419;28;1058;-20
2023/06/27 10:17:55;;;;;;;;;;;;;;;28.51;31.57;100421.88;5083215;28;1921;-20
2023/06/27 10:20:20;;;;;;;;;;;;;;;28.64;31.53;100411.13;5096334;28;1134;-20
2023/06/27 10:22:46;;;;;;;;;;;;;;;28.60;31.71;100417.97;5096204;28;1018;-21
2023/06/27 10:25:11;;;;;;;;;;;;;;;28.67;31.66;100405.31;5086848;28;1141;-21
2023/06/27 10:27:38;;;;;;;;;;;;;;;28.51;31.96;100419.19;5089616;28;1115;-21
2023/06/27 10:30:19;;;;;;;;;;;;;;;28.39;32.24;100411.63;5085596;28;1090;-21
2023/06/27 10:32:44;;;;;;;;;;;;;;;28.52;31.34;100418.13;5078096;28;1106;-21
2023/06/27 10:35:30;;;;;;;;;;;;;;;28.51;31.67;100403.75;5075874;28;1070;-20
2023/06/27 10:38:05;;;;;;;;;;;;;;;28.66;31.41;100414.44;5076033;28;1982;-20
2023/06/27 10:40:51;;;;;;;;;;;;;;;28.59;31.23;100400.88;5091841;28;1226;-20
2023/06/27 10:43:52;;;;;;;;;;;;;;;28.63;31.09;100398.63;5083522;28;1214;-20
2023/06/27 10:46:21;;;;;;;;;;;;;;;28.70;31.08;100398.66;5033598;28;1269;-21
2023/06/27 10:48:47;;;;;;;;;;;;;;;28.54;31.37;100405.25;5067483;28;1047;-21
2023/06/27 10:51:17;;;;;;;;;;;;;;;28.43;31.70;100407.47;5086918;28;1171;-20
2023/06/27 10:53:44;;;;;;;;;;;;;;;28.34;31.92;100404.09;5082561;28;1489;-21
2023/06/27 10:56:16;;;;;;;;;;;;;;;28.39;31.89;100398.09;5094661;28;1274;-20
2023/06/27 10:58:45;;;;;;;;;;;;;;;28.20;32.67;100394.22;5082339;28;1910;-20
2023/06/27 11:01:11;;;;;;;;;;;;;;;28.22;32.79;100389.44;5082821;28;1156;-20
2023/06/27 11:03:41;;;;;;;;;;;;;;;28.16;32.96;100396.47;5095051;28;1067;-20
2023/06/27 11:06:06;;;;;;;;;;;;;;;28.33;32.65;100399.72;5081766;28;1004;-20
2023/06/27 11:08:32;;;;;;;;;;;;;;;28.30;32.56;100397.41;5081676;28;1158;-20
2023/06/27 11:10:58;;;;;;;;;;;;;;;28.07;33.24;100401.22;5082569;28;1178;-20
2023/06/27 11:13:23;;;;;;;;;;;;;;;28.06;33.23;100406.84;5094596;28;1205;-20
2023/06/27 11:15:50;;;;;;;;;;;;;;;28.15;33.09;100400.22;5083509;28;1118;-20
2023/06/27 11:18:15;;;;;;;;;;;;;;;28.40;32.79;100401.63;5081950;28;1975;-20
2023/06/27 11:20:41;;;;;;;;;;;;;;;28.09;33.44;100395.63;5095465;28;1086;-20
2023/06/27 11:23:07;;;;;;;;;;;;;;;28.17;33.38;100392.75;5076971;28;1121;-20
2023/06/27 11:25:40;;;;;;;;;;;;;;;28.12;33.57;100384.41;5075304;28;1113;-20
2023/06/27 11:28:06;;;;;;;;;;;;;;;28.18;33.53;100388.16;5090670;28;1277;-21
2023/06/27 11:30:33;;;;;;;;;;;;;;;27.98;34.21;100395.13;5086570;28;1249;-20
2023/06/27 11:32:58;;;;;;;;;;;;;;;27.90;34.26;100387.16;5099066;28;1113;-20
2023/06/27 11:35:24;;;;;;;;;;;;;;;27.98;34.09;100381.59;5081046;28;1245;-20
2023/06/27 11:37:55;;;;;;;;;;;;;;;28.06;34.23;100375.19;5095525;28;1967;-19
2023/06/27 11:40:21;;;;;;;;;;;;;;;28.11;33.96;100374.63;5081472;28;1062;-20
2023/06/27 11:42:47;;;;;;;;;;;;;;;28.39;33.55;100368.34;5089467;28;1153;-21
2023/06/27 11:45:12;;;;;;;;;;;;;;;28.21;33.85;100361.56;5095844;28;1244;-20
2023/06/27 11:47:38;;;;;;;;;;;;;;;27.99;34.25;100372.44;5092671;28;1213;-19
2023/06/27 11:50:07;;;;;;;;;;;;;;;28.21;33.82;100368.84;5090979;28;1071;-20
2023/06/27 11:52:36;;;;;;;;;;;;;;;27.99;34.51;100371.63;5085306;28;1173;-20
2023/06/27 11:55:02;;;;;;;;;;;;;;;27.99;34.69;100371.63;5085839;28;1078;-20
2023/06/27 11:57:40;;;;;;;;;;;;;;;28.10;34.25;100370.25;5092215;28;1965;-20
2023/06/27 12:00:07;;;;;;;;;;;;;;;28.29;33.92;100373.25;5092301;28;1097;-20
2023/06/27 12:02:34;;;;;;;;;;;;;;;28.14;34.44;100371.53;5078623;28;1198;-18
2023/06/27 12:05:00;;;;;;;;;;;;;;;28.13;34.51;100366.31;5057473;28;1175;-20
2023/06/27 12:07:25;;;;;;;;;;;;;;;28.11;34.27;100366.53;5081324;28;1138;-20
2023/06/27 12:10:04;;;;;;;;;;;;;;;28.18;34.18;100361.13;5084416;28;933;-20
2023/06/27 12:12:36;;;;;;;;;;;;;;;28.12;34.83;100365.47;5080438;28;1322;-20
2023/06/27 12:15:28;;;;;;;;;;;;;;;28.08;34.59;100366.88;5079459;28;1170;-20
2023/06/27 12:17:57;;;;;;;;;;;;;;;28.14;34.82;100362.56;5089875;28;1999;-20
2023/06/27 12:20:23;;;;;;;;;;;;;;;28.32;34.52;100349.34;5098362;28;1069;-20
2023/06/27 12:22:48;;;;;;;;;;;;;;;28.31;34.43;100349.56;5098892;28;1007;-20
2023/06/27 12:25:14;;;;;;;;;;;;;;;24.85;44.49;100341.81;5087950;28;1367;-20
2023/06/27 12:27:39;;;;;;;;;;;;;;;22.89;49.71;100338.94;5085923;28;1178;-20
2023/06/27 12:30:09;;;;;;;;;;;;;;;21.99;51.71;100347.25;5091747;28;1134;-20
2023/06/27 12:32:35;;;;;;;;;;;;;;;22.09;56.28;100349.81;5086302;28;1077;-20
2023/06/27 12:35:00;;;;;;;;;;;;;;;25.31;44.63;100349.94;5097933;28;1039;-20
2023/06/27 12:37:27;;;;;;;;;;;;;;;22.79;50.26;100347.13;5090731;28;1961;-19
2023/06/27 12:39:52;;;;;;;;;;;;;;;21.81;55.21;100347.31;5092644;28;1023;-20
2023/06/27 12:42:18;;;;;;;;;;;;;;;24.66;47.15;100344.78;5088581;28;976;-20
2023/06/27 12:44:44;;;;;;;;;;;;;;;23.34;49.38;100338.66;5092479;28;1203;-20